createdAt,value
2023-12-09T00:16:21.377Z,43.83
2023-12-09T00:19:01.534Z,46.22
2023-12-09T00:21:35.335Z,55.70
2023-12-09T00:24:09.117Z,54.70
2023-12-09T00:26:43.268Z,50.90
2023-12-09T00:29:10.607Z,58.35
2023-12-09T00:31:37.777Z,56.45
2023-12-09T00:34:12.328Z,60.55
2023-12-09T00:36:39.802Z,58.92
2023-12-09T00:41:40.710Z,54.22
2023-12-09T00:44:07.823Z,55.83
2023-12-09T00:46:41.181Z,59.90
2023-12-09T00:49:08.563Z,55.00
2023-12-09T00:54:09.291Z,58.75
2023-12-09T00:56:36.727Z,61.20
2023-12-09T00:59:11.174Z,62.70
2023-12-09T01:01:38.611Z,55.20
2023-12-09T01:04:14.522Z,63.50
2023-12-09T01:06:41.994Z,58.95
2023-12-09T01:09:09.350Z,54.80
2023-12-09T01:11:43.470Z,59.40
2023-12-09T01:14:10.706Z,62.22
2023-12-09T01:16:57.230Z,61.70
2023-12-09T01:19:31.119Z,52.03
2023-12-09T01:22:05.488Z,53.70
2023-12-09T01:24:32.896Z,52.78
2023-12-09T01:29:34.166Z,49.78
2023-12-09T01:32:01.541Z,52.28
2023-12-09T01:34:35.308Z,50.85
2023-12-09T01:37:03.116Z,52.47
2023-12-09T01:39:30.273Z,47.00
2023-12-09T01:42:05.324Z,50.25
2023-12-09T01:44:32.766Z,30.35
2023-12-09T01:47:06.123Z,45.88
2023-12-09T01:49:33.685Z,48.20
2023-12-09T01:52:08.276Z,44.58
2023-12-09T01:54:36.001Z,45.08
2023-12-09T01:57:04.427Z,43.42
2023-12-09T01:59:39.248Z,44.85
2023-12-09T02:02:06.623Z,43.58
2023-12-09T02:04:40.169Z,48.33
2023-12-09T02:07:07.561Z,47.85
2023-12-09T02:09:41.284Z,36.83
2023-12-09T02:12:17.241Z,38.55
2023-12-09T02:14:57.319Z,33.63
2023-12-09T02:17:49.230Z,44.00
2023-12-09T02:20:23.177Z,43.50
2023-12-09T02:22:50.458Z,40.67
2023-12-09T02:25:17.634Z,30.73
2023-12-09T02:27:58.183Z,37.17
2023-12-09T02:30:30.068Z,45.90
2023-12-09T02:33:06.378Z,42.83
2023-12-09T02:35:36.576Z,38.95
2023-12-09T02:38:11.324Z,45.67
2023-12-09T02:40:39.665Z,30.80
2023-12-09T02:43:07.037Z,35.70
2023-12-09T02:45:41.251Z,34.25
2023-12-09T02:48:08.698Z,44.25
2023-12-09T02:53:11.613Z,24.25
2023-12-09T02:55:38.735Z,42.78
2023-12-09T02:58:12.222Z,33.00
2023-12-09T03:00:39.579Z,36.55
2023-12-09T03:03:13.529Z,35.03
2023-12-09T03:05:41.100Z,36.40
2023-12-09T03:10:42.446Z,34.90
2023-12-09T03:13:09.692Z,39.92
2023-12-09T03:15:36.929Z,35.30
2023-12-09T03:18:11.596Z,33.17
2023-12-09T03:20:45.212Z,36.60
2023-12-09T03:23:20.938Z,34.38
2023-12-09T03:25:55.288Z,31.20
2023-12-09T03:28:22.438Z,34.00
2023-12-09T03:30:49.633Z,34.88
2023-12-09T03:33:24.271Z,35.28
2023-12-09T03:35:51.657Z,30.98
2023-12-09T03:38:25.405Z,29.35
2023-12-09T03:40:52.677Z,32.17
2023-12-09T03:43:19.842Z,36.58
2023-12-09T03:45:53.294Z,33.20
2023-12-09T03:48:20.754Z,31.75
2023-12-09T03:53:21.748Z,31.48
2023-12-09T03:55:50.536Z,27.33
2023-12-09T03:58:24.248Z,29.77
2023-12-09T04:00:52.245Z,27.83
2023-12-09T04:03:20.140Z,32.90
2023-12-09T04:05:54.393Z,30.60
2023-12-09T04:08:21.785Z,27.30
2023-12-09T04:10:55.371Z,28.45
2023-12-09T04:13:23.115Z,29.75
2023-12-09T04:15:50.252Z,33.05
2023-12-09T04:18:31.423Z,29.13
2023-12-09T04:21:12.215Z,31.25
2023-12-09T04:23:39.441Z,30.55
2023-12-09T04:26:06.731Z,32.47
2023-12-09T04:28:40.453Z,26.83
2023-12-09T04:31:07.881Z,32.90
2023-12-09T04:33:35.390Z,30.45
2023-12-09T04:36:10.249Z,29.02
2023-12-09T04:38:37.667Z,32.65
2023-12-09T04:41:12.298Z,29.95
2023-12-09T04:43:40.121Z,31.25
2023-12-09T04:46:07.251Z,32.00
2023-12-09T04:48:41.537Z,30.23
2023-12-09T04:51:08.983Z,28.67
2023-12-09T04:53:42.311Z,31.30
2023-12-09T04:56:09.950Z,29.05
2023-12-09T04:58:37.083Z,31.08
2023-12-09T05:01:11.279Z,29.77
2023-12-09T05:03:38.694Z,32.17
2023-12-09T05:08:46.872Z,25.40
2023-12-09T05:11:14.055Z,29.10
2023-12-09T05:13:48.249Z,27.77
2023-12-09T05:16:15.459Z,28.52
2023-12-09T05:18:55.633Z,28.95
2023-12-09T05:21:23.061Z,28.63
2023-12-09T05:24:09.518Z,30.15
2023-12-09T05:26:36.939Z,27.13
2023-12-09T05:29:05.157Z,27.10
2023-12-09T05:31:39.241Z,32.38
2023-12-09T05:34:06.701Z,34.22
2023-12-09T05:39:08.134Z,33.15
2023-12-09T05:44:09.432Z,31.67
2023-12-09T05:46:41.412Z,30.73
2023-12-09T05:49:15.518Z,31.10
2023-12-09T05:51:43.943Z,31.38
2023-12-09T05:54:11.565Z,34.42
2023-12-09T05:56:45.533Z,34.05
2023-12-09T05:59:12.949Z,32.67
2023-12-09T06:01:40.180Z,38.58
2023-12-09T06:04:14.331Z,33.67
2023-12-09T06:06:41.620Z,36.65
2023-12-09T06:09:17.457Z,32.22
2023-12-09T06:11:44.783Z,34.58
2023-12-09T06:14:11.905Z,35.90
2023-12-09T06:16:45.300Z,35.60
2023-12-09T06:19:19.213Z,36.00
2023-12-09T06:21:54.265Z,32.20
2023-12-09T06:24:21.684Z,40.20
2023-12-09T06:29:22.844Z,37.97
2023-12-09T06:31:49.968Z,39.55
2023-12-09T06:34:24.388Z,36.58
2023-12-09T06:36:51.721Z,37.67
2023-12-09T06:39:25.515Z,35.60
2023-12-09T06:41:52.981Z,43.60
2023-12-09T06:44:20.367Z,40.78
2023-12-09T06:46:54.352Z,41.58
2023-12-09T06:49:22.121Z,45.92
2023-12-09T06:51:51.031Z,40.83
2023-12-09T06:54:25.265Z,45.97
2023-12-09T06:56:53.155Z,44.78
2023-12-09T06:59:27.365Z,45.78
2023-12-09T07:01:57.566Z,38.92
2023-12-09T07:04:24.885Z,46.30
2023-12-09T07:06:58.221Z,46.83
2023-12-09T07:09:25.525Z,39.78
2023-12-09T07:12:02.247Z,45.55
2023-12-09T07:14:30.251Z,38.58
2023-12-09T07:17:10.317Z,46.55
2023-12-09T07:19:51.414Z,52.08
2023-12-09T07:22:18.923Z,48.10
2023-12-09T07:27:20.510Z,45.50
2023-12-09T07:29:47.700Z,49.08
2023-12-09T07:32:15.065Z,46.97
2023-12-09T07:37:16.837Z,46.17
2023-12-09T07:39:50.500Z,40.50
2023-12-09T07:42:17.804Z,40.70
2023-12-09T07:44:45.015Z,48.13
2023-12-09T07:47:19.558Z,46.70
2023-12-09T07:49:46.863Z,48.47
2023-12-09T07:52:14.154Z,49.45
2023-12-09T07:54:48.435Z,54.38
2023-12-09T07:57:15.851Z,51.25
2023-12-09T08:02:16.478Z,44.72
2023-12-09T08:04:50.368Z,42.80
2023-12-09T08:07:17.677Z,44.85
2023-12-09T08:09:44.849Z,41.28
2023-12-09T08:12:18.497Z,42.55
2023-12-09T08:14:45.750Z,39.90
2023-12-09T08:17:32.664Z,40.90
2023-12-09T08:19:59.908Z,40.17
2023-12-09T08:22:27.633Z,45.50
2023-12-09T08:25:01.410Z,41.88
2023-12-09T08:27:28.613Z,47.10
2023-12-09T08:30:02.430Z,42.38
2023-12-09T08:32:30.336Z,33.28
2023-12-09T08:35:03.429Z,44.83
2023-12-09T08:37:43.425Z,42.38
2023-12-09T08:40:12.679Z,37.97
2023-12-09T08:42:40.753Z,42.58
2023-12-09T08:45:17.349Z,40.67
2023-12-09T08:47:45.874Z,41.00
2023-12-09T08:50:23.529Z,38.95
2023-12-09T08:52:56.000Z,38.55
2023-12-09T08:55:33.018Z,42.53
2023-12-09T08:58:00.319Z,42.58
2023-12-09T09:00:28.903Z,47.65
2023-12-09T09:03:03.323Z,41.58
2023-12-09T09:05:31.276Z,40.10
2023-12-09T09:07:58.530Z,40.03
2023-12-09T09:10:32.487Z,40.95
2023-12-09T09:13:00.362Z,44.67
2023-12-09T09:15:28.466Z,38.55
2023-12-09T09:18:03.574Z,39.42
2023-12-09T09:20:37.262Z,40.95
2023-12-09T09:23:11.317Z,36.42
2023-12-09T09:25:38.671Z,41.75
2023-12-09T09:28:05.940Z,32.75
2023-12-09T09:30:39.411Z,40.70
2023-12-09T09:33:07.721Z,40.42
2023-12-09T09:35:41.549Z,41.88
2023-12-09T09:38:08.845Z,30.98
2023-12-09T09:40:36.184Z,36.30
2023-12-09T09:43:15.461Z,36.90
2023-12-09T09:45:44.810Z,40.25
2023-12-09T09:48:20.671Z,38.80
2023-12-09T09:50:53.081Z,38.45
2023-12-09T09:53:32.312Z,40.97
2023-12-09T09:56:00.147Z,29.15
2023-12-09T09:58:27.316Z,40.85
2023-12-09T10:01:03.348Z,38.65
2023-12-09T10:03:37.248Z,39.03
2023-12-09T10:06:05.715Z,31.67
2023-12-09T10:08:33.132Z,37.47
2023-12-09T10:11:07.396Z,37.03
2023-12-09T10:13:35.010Z,36.45
2023-12-09T10:18:43.340Z,40.90
2023-12-09T10:21:24.508Z,35.42
2023-12-09T10:23:52.082Z,39.65
2023-12-09T10:28:53.312Z,36.35
2023-12-09T10:31:20.619Z,32.88
2023-12-09T10:33:48.030Z,37.78
2023-12-09T10:38:48.579Z,34.75
2023-12-09T10:41:24.432Z,39.67
2023-12-09T10:43:51.747Z,34.42
2023-12-09T10:46:18.914Z,41.92
2023-12-09T10:48:52.479Z,33.50
2023-12-09T10:51:20.320Z,35.00
2023-12-09T10:53:54.457Z,39.05
2023-12-09T10:56:22.817Z,37.80
2023-12-09T10:58:50.155Z,39.92
2023-12-09T11:01:24.481Z,42.30
2023-12-09T11:03:51.843Z,38.72
2023-12-09T11:06:20.165Z,37.83
2023-12-09T11:08:54.458Z,44.63
2023-12-09T11:11:22.014Z,38.55
2023-12-09T11:16:23.560Z,42.13
2023-12-09T11:19:08.564Z,35.40
2023-12-09T11:21:44.448Z,40.30
2023-12-09T11:24:19.715Z,36.10
2023-12-09T11:26:48.087Z,39.72
2023-12-09T11:29:19.011Z,35.45
2023-12-09T11:31:54.454Z,37.33
2023-12-09T11:34:22.507Z,39.67
2023-12-09T11:37:00.358Z,37.53
2023-12-09T11:39:28.230Z,34.80
2023-12-09T11:41:56.071Z,37.58
2023-12-09T11:44:30.314Z,35.30
2023-12-09T11:46:57.532Z,39.13
2023-12-09T11:49:34.694Z,38.55
2023-12-09T11:52:01.967Z,43.10
2023-12-09T11:54:29.197Z,36.47
2023-12-09T11:57:03.404Z,42.65
2023-12-09T11:59:30.923Z,38.17
2023-12-09T12:04:37.477Z,33.58
2023-12-09T12:07:12.293Z,34.60
2023-12-09T12:09:46.287Z,30.30
2023-12-09T12:12:13.538Z,34.75
2023-12-09T12:14:47.380Z,28.80
2023-12-09T12:17:17.103Z,29.27
2023-12-09T12:19:59.389Z,37.50
2023-12-09T12:22:26.925Z,32.13
2023-12-09T12:24:55.235Z,32.92
2023-12-09T12:27:29.357Z,29.15
2023-12-09T12:29:56.837Z,32.15
2023-12-09T12:32:30.679Z,26.80
2023-12-09T12:34:58.220Z,28.10
2023-12-09T12:37:32.476Z,34.25
2023-12-09T12:39:59.806Z,31.15
2023-12-09T12:42:27.344Z,26.23
2023-12-09T12:45:01.352Z,27.52
2023-12-09T12:47:48.649Z,33.20
2023-12-09T12:50:42.385Z,29.60
2023-12-09T12:53:30.298Z,32.80
2023-12-09T12:56:24.413Z,22.88
2023-12-09T12:59:18.311Z,31.42
2023-12-09T13:02:05.590Z,36.70
2023-12-09T13:04:59.223Z,33.33
2023-12-09T13:07:46.410Z,37.03
2023-12-09T13:10:40.410Z,37.40
2023-12-09T13:13:27.637Z,33.00
2023-12-09T13:16:21.427Z,31.73
2023-12-09T13:19:28.904Z,38.90
2023-12-09T13:22:22.268Z,35.97
2023-12-09T13:25:09.483Z,34.53
2023-12-09T13:28:03.497Z,32.92
2023-12-09T13:30:50.907Z,36.88
2023-12-09T13:33:44.481Z,39.03
2023-12-09T13:36:32.048Z,34.50
2023-12-09T13:39:26.417Z,39.13
2023-12-09T13:42:14.364Z,37.13
2023-12-09T13:45:08.567Z,34.60
2023-12-09T13:47:56.175Z,37.33
2023-12-09T13:50:50.412Z,37.50
2023-12-09T13:53:37.641Z,29.30
2023-12-09T13:56:31.246Z,35.10
2023-12-09T13:59:25.348Z,29.58
2023-12-09T14:02:19.346Z,31.73
2023-12-09T14:05:06.638Z,31.30
2023-12-09T14:08:00.469Z,30.77
2023-12-09T14:10:47.788Z,29.75
2023-12-09T14:13:41.362Z,29.67
2023-12-09T14:16:36.397Z,30.90
2023-12-09T14:19:36.431Z,31.77
2023-12-09T14:22:30.594Z,24.55
2023-12-09T14:25:17.919Z,33.00
2023-12-09T14:28:11.540Z,27.75
2023-12-09T14:30:58.714Z,34.08
2023-12-09T14:33:32.717Z,36.65
2023-12-09T14:36:00.018Z,36.85
2023-12-09T14:38:27.414Z,30.92
2023-12-09T14:41:01.350Z,35.33
2023-12-09T14:43:28.643Z,34.55
2023-12-09T14:46:02.372Z,38.58
2023-12-09T14:48:32.523Z,31.55
2023-12-09T14:51:00.066Z,34.80
2023-12-09T14:53:33.457Z,32.00
2023-12-09T14:56:01.733Z,39.83
2023-12-09T14:58:35.697Z,41.38
2023-12-09T15:01:03.199Z,35.67
2023-12-09T15:06:05.726Z,32.78
2023-12-09T15:08:39.433Z,34.08
2023-12-09T15:11:07.490Z,30.23
2023-12-09T15:13:34.960Z,28.73
2023-12-09T15:18:42.516Z,34.35
2023-12-09T15:21:42.435Z,37.10
2023-12-09T15:24:36.734Z,35.63
2023-12-09T15:27:24.094Z,34.22
2023-12-09T15:30:18.327Z,37.65
2023-12-09T15:33:12.874Z,29.08
2023-12-09T15:36:00.749Z,25.52
2023-12-09T15:38:54.377Z,24.10
2023-12-09T15:41:41.613Z,33.38
2023-12-09T15:44:42.512Z,37.63
2023-12-09T15:47:29.836Z,39.13
2023-12-09T15:50:23.416Z,40.38
2023-12-09T15:53:10.574Z,39.70
2023-12-09T15:56:04.753Z,40.65
2023-12-09T15:58:52.067Z,32.13
2023-12-09T16:01:45.710Z,41.40
2023-12-09T16:04:33.140Z,27.45
2023-12-09T16:07:27.351Z,46.03
2023-12-09T16:10:21.269Z,43.25
2023-12-09T16:13:15.441Z,36.22
2023-12-09T16:16:09.298Z,39.85
2023-12-09T16:19:09.806Z,39.22
2023-12-09T16:22:03.332Z,40.42
2023-12-09T16:24:57.468Z,44.03
2023-12-09T16:27:51.631Z,43.85
2023-12-09T16:30:39.105Z,39.03
2023-12-09T16:33:33.497Z,42.35
2023-12-09T16:36:20.916Z,44.53
2023-12-09T16:39:14.455Z,23.35
2023-12-09T16:42:02.009Z,37.13
2023-12-09T16:44:55.301Z,35.30
2023-12-09T16:47:49.844Z,42.58
2023-12-09T16:50:43.306Z,42.58
2023-12-09T16:53:37.482Z,39.63
2023-12-09T16:56:31.338Z,45.03
2023-12-09T16:59:18.580Z,48.20
2023-12-09T17:02:12.476Z,43.55
2023-12-09T17:04:59.676Z,35.47
2023-12-09T17:07:53.318Z,47.80
2023-12-09T17:10:40.533Z,40.03
2023-12-09T17:13:34.728Z,42.28
2023-12-09T17:16:22.030Z,39.83
2023-12-09T17:19:21.346Z,45.42
2023-12-09T17:25:09.301Z,48.60
2023-12-09T17:28:03.421Z,39.33
2023-12-09T17:30:57.322Z,54.50
2023-12-09T17:33:44.671Z,49.88
2023-12-09T17:36:38.498Z,53.58
2023-12-09T17:39:25.831Z,53.03
2023-12-09T17:42:19.370Z,48.45
2023-12-09T17:45:06.645Z,42.00
2023-12-09T17:48:00.510Z,44.53
2023-12-09T17:50:47.866Z,46.55
2023-12-09T17:53:48.409Z,42.55
2023-12-09T17:56:35.924Z,39.55
2023-12-09T17:59:29.597Z,54.55
2023-12-09T18:02:16.785Z,58.05
2023-12-09T18:05:10.366Z,50.25
2023-12-09T18:07:57.891Z,37.33
2023-12-09T18:10:51.288Z,57.17
2023-12-09T18:13:38.532Z,54.42
2023-12-09T18:16:32.353Z,52.80
2023-12-09T18:19:26.579Z,40.83
2023-12-09T18:22:26.715Z,57.45
2023-12-09T18:25:14.445Z,45.22
2023-12-09T18:28:08.313Z,46.10
2023-12-09T18:30:55.988Z,55.03
2023-12-09T18:33:50.485Z,61.35
2023-12-09T18:36:37.853Z,53.60
2023-12-09T18:39:31.363Z,51.85
2023-12-09T18:42:18.587Z,54.45
2023-12-09T18:45:12.428Z,58.03
2023-12-09T18:48:00.074Z,25.40
2023-12-09T18:50:56.195Z,51.47
2023-12-09T18:53:44.769Z,50.85
2023-12-09T18:56:38.302Z,51.28
2023-12-09T18:59:39.458Z,56.42
2023-12-09T19:02:27.037Z,43.10
2023-12-09T19:05:20.479Z,55.42
2023-12-09T19:08:14.313Z,48.40
2023-12-09T19:11:08.584Z,50.15
2023-12-09T19:13:55.890Z,51.03
2023-12-09T19:16:49.458Z,65.95
2023-12-09T19:19:56.436Z,44.88
2023-12-09T19:22:50.370Z,44.92
2023-12-09T19:25:44.495Z,55.97
2023-12-09T19:28:31.660Z,58.03
2023-12-09T19:31:25.346Z,38.85
2023-12-09T19:34:19.830Z,44.95
2023-12-09T19:37:13.504Z,59.97
2023-12-09T19:40:00.829Z,66.18
2023-12-09T19:42:54.540Z,57.42
2023-12-09T19:45:41.864Z,62.15
2023-12-09T19:48:36.014Z,52.85
2023-12-09T19:51:23.272Z,65.25
2023-12-09T19:54:17.614Z,49.25
2023-12-09T19:57:04.803Z,58.30
2023-12-09T19:59:58.322Z,69.05
2023-12-09T20:02:52.490Z,59.08
2023-12-09T20:05:46.326Z,35.40
2023-12-09T20:08:40.652Z,47.95
2023-12-09T20:11:27.886Z,62.35
2023-12-09T20:14:21.481Z,35.78
2023-12-09T20:17:08.735Z,53.25
2023-12-09T20:20:08.614Z,45.83
2023-12-09T20:23:10.501Z,37.72
2023-12-09T20:25:57.657Z,47.30
2023-12-09T20:28:51.344Z,37.38
2023-12-09T20:31:38.824Z,49.75
2023-12-09T20:34:32.599Z,47.08
2023-12-09T20:37:20.055Z,40.97
2023-12-09T20:40:14.491Z,49.80
2023-12-09T20:43:01.762Z,36.25
2023-12-09T20:45:55.416Z,39.67
2023-12-09T20:48:42.874Z,30.38
2023-12-09T20:51:36.468Z,39.83
2023-12-09T20:54:23.733Z,31.83
2023-12-09T20:57:17.497Z,34.80
2023-12-09T21:00:04.961Z,49.20
2023-12-09T21:02:58.380Z,44.42
2023-12-09T21:05:52.466Z,42.20
2023-12-09T21:08:39.668Z,42.85
2023-12-09T21:11:35.695Z,49.67
2023-12-09T21:14:23.057Z,44.92
2023-12-09T21:17:17.125Z,43.88
2023-12-09T21:20:11.477Z,49.90
2023-12-09T21:23:05.751Z,45.58
2023-12-09T21:25:52.936Z,49.15
2023-12-09T21:28:46.593Z,43.13
2023-12-09T21:31:33.906Z,47.03
2023-12-09T21:34:27.830Z,43.30
2023-12-09T21:37:15.121Z,45.78
2023-12-09T21:40:09.623Z,45.55
2023-12-09T21:42:56.952Z,37.30
2023-12-09T21:45:50.664Z,44.25
2023-12-09T21:48:38.074Z,50.80
2023-12-09T21:51:32.475Z,51.70
2023-12-09T21:54:19.858Z,50.92
2023-12-09T21:57:13.537Z,43.65
2023-12-09T22:00:00.809Z,52.95
2023-12-09T22:02:54.522Z,52.58
2023-12-09T22:05:41.867Z,46.47
2023-12-09T22:08:35.883Z,50.97
2023-12-09T22:11:23.041Z,41.13
2023-12-09T22:14:16.477Z,45.28
2023-12-09T22:17:03.829Z,51.90
2023-12-09T22:20:04.652Z,54.28
2023-12-09T22:22:55.354Z,36.88
2023-12-09T22:25:49.643Z,49.95
2023-12-09T22:28:36.907Z,53.22
2023-12-09T22:31:30.472Z,50.28
2023-12-09T22:34:18.120Z,51.88
2023-12-09T22:37:11.561Z,27.38
2023-12-09T22:40:00.381Z,50.50
2023-12-09T22:42:54.497Z,54.53
2023-12-09T22:45:41.737Z,49.30
2023-12-09T22:48:35.952Z,42.78
2023-12-09T22:51:29.537Z,43.13
2023-12-09T22:54:16.821Z,57.72
2023-12-09T22:57:10.545Z,50.55
2023-12-09T22:59:57.868Z,52.33
2023-12-09T23:02:51.420Z,49.30
2023-12-09T23:05:38.687Z,47.28
2023-12-09T23:08:32.522Z,52.53
2023-12-09T23:11:19.697Z,50.60
2023-12-09T23:14:13.561Z,54.53
2023-12-09T23:17:00.756Z,47.22
2023-12-09T23:20:00.526Z,50.53
2023-12-09T23:22:47.770Z,46.88
2023-12-09T23:25:41.412Z,40.40
2023-12-09T23:28:28.617Z,52.50
2023-12-09T23:31:28.850Z,53.47
2023-12-09T23:34:23.766Z,38.58
2023-12-09T23:37:17.591Z,38.13
2023-12-09T23:40:04.994Z,48.92
2023-12-09T23:42:58.423Z,30.65
2023-12-09T23:45:45.689Z,54.83
2023-12-09T23:48:39.601Z,52.70
2023-12-09T23:51:27.091Z,47.58
2023-12-09T23:54:20.425Z,53.10
2023-12-09T23:57:07.865Z,59.05
